Terminal Aerodrome Forecast
Issued by NWS

Home | Current Version | Previous Version | Text Only | Print | Product List | Glossary On
Versions: 1 2 3 4 5 6 7 8 9 10 11 12 13 14
000
FTUS45 KABQ 221750
TAFGUP
TAF
KGUP 221750Z 2218/2318 15011KT P6SM FEW070 BKN200
     FM221900 21012G22KT P6SM SCT080 BKN200
     FM222100 22022G32KT P6SM SCT080
     FM230200 24013KT P6SM SCT150
     FM230400 VRB05KT P6SM SKC=

USA.gov is the U.S. government's official web portal to all federal, state and local government web resources and services.